Time;durP1;ratioP1;P1;durP2;ratioP2;P2;SDS_P1;SDS_P2;PMS_P1;PMS_P2;Temp;Humidity;BMP_temperature;BMP_pressure;BME280_temperature;BME280_humidity;BME280_pressure;Samples;Min_cycle;Max_cycle;Signal;HPM_P1;HPM_P2
2022/06/01 00:01:51;;;;;;;6.05;3.65;;;11.40;99.90;;;;;;4880798;29;20044;-86
2022/06/01 00:04:17;;;;;;;;;;;11.70;99.90;;;;;;4850089;29;20378;-86
2022/06/01 00:06:43;;;;;;;5.10;3.60;;;11.70;99.90;;;;;;4865428;29;19938;-86
2022/06/01 00:09:08;;;;;;;5.27;3.83;;;11.70;99.90;;;;;;4881158;29;20075;-86
2022/06/01 00:11:34;;;;;;;4.67;3.90;;;11.70;99.90;;;;;;4881173;29;20052;-87
2022/06/01 00:14:00;;;;;;;6.80;3.97;;;11.70;99.90;;;;;;4864820;29;20058;-86
2022/06/01 00:16:26;;;;;;;6.17;3.93;;;11.70;99.90;;;;;;4880385;29;20055;-85
2022/06/01 00:18:51;;;;;;;7.60;4.15;;;11.70;99.90;;;;;;4879531;29;20049;-86
2022/06/01 00:21:17;;;;;;;3.50;3.20;;;11.70;99.90;;;;;;4862739;29;20114;-86
2022/06/01 00:23:43;;;;;;;4.83;3.83;;;11.70;99.90;;;;;;4879531;29;20045;-86
2022/06/01 00:26:08;;;;;;;4.87;4.10;;;11.60;99.90;;;;;;4879891;29;20452;-86
2022/06/01 00:28:35;;;;;;;5.60;3.90;;;11.60;99.90;;;;;;4833603;29;20136;-86
2022/06/01 00:31:00;;;;;;;5.50;3.65;;;11.60;99.90;;;;;;4879560;29;20040;-87
2022/06/01 00:33:26;;;;;;;5.27;4.77;;;11.60;99.90;;;;;;4876989;29;20055;-86
2022/06/01 00:35:53;;;;;;;4.53;3.72;;;11.50;99.90;;;;;;4851841;29;20045;-86
2022/06/01 00:38:19;;;;;;;4.70;3.92;;;11.50;99.90;;;;;;4880274;29;20455;-86
2022/06/01 00:40:45;;;;;;;5.30;3.53;;;11.50;99.90;;;;;;4895973;29;20119;-86
2022/06/01 00:43:44;;;;;;;4.43;3.60;;;11.50;99.90;;;;;;4849634;29;20080;-88
2022/06/01 00:46:11;;;;;;;4.90;4.40;;;11.60;99.90;;;;;;4872720;29;20084;-86
2022/06/01 00:48:44;;;;;;;5.53;4.95;;;11.60;99.90;;;;;;4879446;29;20041;-86
2022/06/01 00:51:13;;;;;;;6.68;4.15;;;11.50;99.90;;;;;;4879826;29;20072;-86
2022/06/01 00:53:40;;;;;;;7.75;4.57;;;11.50;99.90;;;;;;4879657;29;20063;-88
2022/06/01 00:56:11;;;;;;;6.68;4.70;;;11.50;99.90;;;;;;4873531;29;20113;-86
2022/06/01 00:58:43;;;;;;;5.60;4.80;;;11.50;99.90;;;;;;4865898;29;20052;-86
2022/06/01 01:01:16;;;;;;;5.68;4.60;;;11.50;99.90;;;;;;4880549;29;20052;-86
2022/06/01 01:03:45;;;;;;;5.13;4.20;;;11.50;99.90;;;;;;4880513;29;20135;-87
2022/06/01 01:06:30;;;;;;;5.30;4.60;;;11.50;99.90;;;;;;4880482;29;20095;-86
2022/06/01 01:08:57;;;;;;;7.38;4.63;;;11.50;99.90;;;;;;4864835;29;20135;-86
2022/06/01 01:11:34;;;;;;;6.25;4.47;;;11.50;99.90;;;;;;4865602;29;20108;-86
2022/06/01 01:14:01;;;;;;;6.75;4.63;;;11.40;99.90;;;;;;4826030;29;1154054;-86
2022/06/01 01:16:27;;;;;;;6.45;4.95;;;11.40;99.90;;;;;;4896967;29;20056;-86
2022/06/01 01:18:54;;;;;;;4.20;3.55;;;11.40;99.90;;;;;;4865604;29;20041;-86
2022/06/01 01:21:41;;;;;;;5.68;4.50;;;11.40;99.90;;;;;;4850600;29;20059;-86
2022/06/01 01:24:11;;;;;;;9.60;4.68;;;11.40;99.90;;;;;;4865329;29;20061;-87
2022/06/01 01:26:37;;;;;;;5.40;4.55;;;11.40;99.90;;;;;;4865675;29;20076;-86
2022/06/01 01:29:09;;;;;;;4.80;4.23;;;11.40;99.90;;;;;;4880746;29;20120;-86
2022/06/01 01:31:35;;;;;;;6.13;5.45;;;11.40;99.90;;;;;;4878039;29;20053;-86
2022/06/01 01:34:01;;;;;;;6.30;4.90;;;11.40;99.90;;;;;;4862308;29;20071;-86
2022/06/01 01:36:34;;;;;;;4.10;3.70;;;11.30;99.90;;;;;;4871620;29;20044;-86
2022/06/01 01:39:07;;;;;;;6.15;5.35;;;11.30;99.90;;;;;;4880965;29;20407;-86
2022/06/01 01:41:39;;;;;;;5.90;3.80;;;11.30;99.90;;;;;;4881359;29;20127;-86
2022/06/01 01:44:19;;;;;;;7.78;5.25;;;11.20;99.90;;;;;;4880897;29;20048;-86
2022/06/01 01:46:49;;;;;;;6.00;4.15;;;11.20;99.90;;;;;;4880168;29;20048;-86
2022/06/01 01:49:26;;;;;;;6.53;4.90;;;11.20;99.90;;;;;;4881101;29;20048;-86
2022/06/01 01:51:54;;;;;;;5.38;4.18;;;11.20;99.90;;;;;;4879843;29;20052;-87
2022/06/01 01:55:01;;;;;;;5.97;5.20;;;11.10;99.90;;;;;;4853291;29;20103;-86
2022/06/01 01:57:50;;;;;;;10.02;5.03;;;11.10;99.90;;;;;;4868853;29;20060;-86
2022/06/01 02:00:27;;;;;;;5.35;4.80;;;11.00;99.90;;;;;;4880977;29;20055;-86
2022/06/01 02:03:34;;;;;;;6.22;4.35;;;11.00;99.90;;;;;;4879872;29;20444;-86
2022/06/01 02:06:12;;;;;;;4.85;3.92;;;10.90;99.90;;;;;;4880504;29;20518;-86
2022/06/01 02:08:48;;;;;;;7.00;4.97;;;10.90;99.90;;;;;;4880095;29;20055;-86
2022/06/01 02:14:16;;;;;;;7.43;4.72;;;10.90;99.90;;;;;;4880013;29;20064;-86
2022/06/01 02:16:46;;;;;;;8.13;5.00;;;10.80;99.90;;;;;;4881150;29;20048;-86
2022/06/01 02:19:23;;;;;;;6.20;4.57;;;10.80;99.90;;;;;;4880092;29;20106;-86
2022/06/01 02:21:54;;;;;;;6.97;5.05;;;10.80;99.90;;;;;;4879636;29;20131;-86
2022/06/01 02:24:21;;;;;;;8.57;5.72;;;10.80;99.90;;;;;;4877131;29;20135;-86
2022/06/01 02:26:49;;;;;;;9.73;7.00;;;10.70;99.90;;;;;;4879416;29;20634;-86
2022/06/01 02:29:19;;;;;;;6.85;5.32;;;10.70;99.90;;;;;;4880177;29;20460;-86
2022/06/01 02:31:46;;;;;;;7.38;6.00;;;10.70;99.90;;;;;;4895981;29;20056;-86
2022/06/01 02:34:12;;;;;;;10.82;6.45;;;10.70;99.90;;;;;;4863145;29;20868;-86
2022/06/01 02:36:40;;;;;;;8.98;6.82;;;10.60;99.90;;;;;;4864697;29;20056;-86
2022/06/01 02:39:08;;;;;;;6.88;5.43;;;10.60;99.90;;;;;;4862464;29;20060;-86
2022/06/01 02:44:19;;;;;;;7.60;5.57;;;10.60;99.90;;;;;;4867377;29;20052;-86
2022/06/01 02:46:45;;;;;;;8.97;5.60;;;10.60;99.90;;;;;;4865223;29;20087;-86
2022/06/01 02:49:11;;;;;;;8.25;5.60;;;10.60;99.90;;;;;;4874206;29;20134;-86
2022/06/01 02:51:37;;;;;;;9.57;5.22;;;10.60;99.90;;;;;;4864878;29;20138;-86
2022/06/01 02:54:03;;;;;;;10.95;6.45;;;10.60;99.90;;;;;;4879765;29;20076;-87
2022/06/01 02:56:29;;;;;;;9.27;5.93;;;10.60;99.90;;;;;;4865540;29;20091;-86
2022/06/01 02:58:56;;;;;;;6.47;5.70;;;10.60;99.90;;;;;;4883867;29;20062;-86
2022/06/01 03:01:22;;;;;;;9.45;6.40;;;10.60;99.90;;;;;;4880335;29;20079;-86
2022/06/01 03:03:48;;;;;;;7.15;6.43;;;10.60;99.90;;;;;;4850797;29;20088;-87
2022/06/01 03:06:14;;;;;;;6.03;5.50;;;10.60;99.90;;;;;;4883453;29;20085;-86
2022/06/01 03:08:40;;;;;;;9.18;5.78;;;10.60;99.90;;;;;;4883968;29;20048;-86
2022/06/01 03:11:07;;;;;;;8.15;5.88;;;10.60;99.90;;;;;;4883217;29;20455;-86
2022/06/01 03:13:32;;;;;;;10.73;6.20;;;10.60;99.90;;;;;;4867945;29;20049;-86
2022/06/01 03:15:59;;;;;;;9.20;6.50;;;10.60;99.90;;;;;;4878847;29;20124;-87
2022/06/01 03:18:25;;;;;;;7.32;6.00;;;10.60;99.90;;;;;;4883583;29;20394;-86
2022/06/01 03:20:51;;;;;;;10.05;5.95;;;10.60;99.90;;;;;;4868070;29;20399;-86
2022/06/01 03:23:19;;;;;;;8.77;6.23;;;10.60;99.90;;;;;;4867783;29;20092;-86
2022/06/01 03:25:45;;;;;;;8.27;6.80;;;10.70;99.90;;;;;;4883418;29;20061;-86
2022/06/01 03:28:11;;;;;;;10.02;6.50;;;10.70;99.90;;;;;;4883184;29;20059;-86
2022/06/01 03:30:36;;;;;;;12.03;7.70;;;10.70;99.90;;;;;;4876079;29;20048;-86
2022/06/01 03:33:05;;;;;;;6.87;6.13;;;10.60;99.90;;;;;;4867312;29;20135;-87
2022/06/01 03:35:32;;;;;;;10.27;5.63;;;10.60;99.90;;;;;;4852332;29;20048;-86
2022/06/01 03:37:58;;;;;;;11.98;7.85;;;10.60;99.90;;;;;;4868016;29;20048;-86
2022/06/01 03:40:27;;;;;;;7.60;6.32;;;10.60;99.90;;;;;;4882874;29;20552;-86
2022/06/01 03:42:52;;;;;;;8.73;7.03;;;10.50;99.90;;;;;;4883224;29;20135;-86
2022/06/01 03:48:03;;;;;;;10.13;7.40;;;10.60;99.90;;;;;;4881443;29;20115;-87
2022/06/01 03:50:29;;;;;;;8.45;7.20;;;10.50;99.90;;;;;;4867450;29;20040;-86
2022/06/01 03:52:56;;;;;;;9.97;7.53;;;10.50;99.90;;;;;;4851046;29;20083;-87
2022/06/01 03:55:21;;;;;;;;;;;10.50;99.90;;;;;;4898145;29;20088;-86
2022/06/01 03:57:47;;;;;;;8.32;7.47;;;10.60;99.90;;;;;;4880419;29;19985;-87
2022/06/01 04:00:16;;;;;;;9.20;7.03;;;10.60;99.90;;;;;;4863908;29;20112;-86
2022/06/01 04:02:42;;;;;;;9.90;7.32;;;10.60;99.90;;;;;;4850134;29;20057;-86
2022/06/01 04:05:09;;;;;;;10.70;7.63;;;10.60;99.90;;;;;;4863732;29;20045;-86
2022/06/01 04:07:35;;;;;;;8.40;7.45;;;10.60;99.90;;;;;;4872874;29;20055;-86
2022/06/01 04:10:01;;;;;;;9.53;7.97;;;10.60;99.90;;;;;;4866499;29;20044;-86
2022/06/01 04:12:27;;;;;;;10.88;8.18;;;10.60;99.90;;;;;;4880908;29;20120;-86
2022/06/01 04:14:53;;;;;;;12.75;7.40;;;10.70;99.90;;;;;;4866701;29;20060;-86
2022/06/01 04:17:19;;;;;;;12.07;8.27;;;10.60;99.90;;;;;;4881834;29;20048;-86
2022/06/01 04:19:45;;;;;;;10.70;9.07;;;10.60;99.90;;;;;;4864116;29;20068;-86
2022/06/01 04:22:13;;;;;;;8.80;7.83;;;10.70;99.90;;;;;;4863440;29;20132;-86
2022/06/01 04:24:40;;;;;;;9.90;7.90;;;10.70;99.90;;;;;;4864094;29;20097;-86
2022/06/01 04:27:05;;;;;;;10.73;8.25;;;10.70;99.90;;;;;;4879242;29;20492;-86
2022/06/01 04:29:31;;;;;;;12.27;8.40;;;10.70;99.90;;;;;;4863331;29;20052;-85
2022/06/01 04:32:07;;;;;;;11.57;7.83;;;10.70;99.90;;;;;;4874510;29;20040;-85
2022/06/01 04:34:33;;;;;;;12.13;8.13;;;10.70;99.90;;;;;;4866489;29;20080;-85
2022/06/01 04:36:59;;;;;;;9.13;8.13;;;10.70;99.90;;;;;;4866693;29;20143;-86
2022/06/01 04:39:25;;;;;;;12.03;7.87;;;10.70;99.90;;;;;;4881717;29;20064;-86
2022/06/01 04:41:51;;;;;;;11.53;8.33;;;10.80;99.90;;;;;;4880638;29;20037;-85
2022/06/01 04:44:16;;;;;;;10.80;6.97;;;10.80;99.90;;;;;;4881091;29;20503;-86
2022/06/01 04:46:42;;;;;;;13.43;8.50;;;10.80;99.90;;;;;;4851602;29;20108;-86
2022/06/01 04:49:08;;;;;;;15.50;9.00;;;10.80;99.90;;;;;;4881524;29;20136;-86
2022/06/01 04:51:35;;;;;;;13.37;8.30;;;10.80;99.90;;;;;;4865978;29;20044;-86
2022/06/01 04:54:01;;;;;;;9.73;7.05;;;10.80;99.90;;;;;;4866200;29;20376;-86
2022/06/01 04:56:29;;;;;;;10.43;8.50;;;10.80;99.90;;;;;;4881264;29;20063;-86
2022/06/01 04:58:55;;;;;;;8.68;6.75;;;10.80;99.90;;;;;;4881366;29;20052;-85
2022/06/01 05:01:21;;;;;;;9.95;8.07;;;10.90;99.90;;;;;;4865618;29;20127;-86
2022/06/01 05:03:48;;;;;;;8.65;7.47;;;10.90;99.90;;;;;;4881599;29;20056;-86
2022/06/01 05:06:13;;;;;;;8.68;7.20;;;10.90;99.90;;;;;;4865967;29;20051;-87
2022/06/01 05:08:39;;;;;;;10.90;7.87;;;10.90;99.90;;;;;;4850505;29;20135;-86
2022/06/01 05:11:04;;;;;;;11.07;8.30;;;10.90;99.90;;;;;;4864521;29;20053;-86
2022/06/01 05:13:30;;;;;;;10.20;7.23;;;10.90;99.90;;;;;;4879428;29;20056;-86
2022/06/01 05:15:59;;;;;;;9.07;7.33;;;10.90;99.90;;;;;;4856867;29;20064;-86
2022/06/01 05:18:25;;;;;;;10.90;7.28;;;10.90;99.90;;;;;;4862619;29;20045;-86
2022/06/01 05:20:53;;;;;;;;;;;10.90;99.90;;;;;;4863371;29;20135;-85
2022/06/01 05:23:19;;;;;;;8.57;6.63;;;10.90;99.90;;;;;;4879858;29;19924;-86
2022/06/01 05:25:47;;;;;;;9.57;7.80;;;10.90;99.90;;;;;;4870633;29;20042;-85
2022/06/01 05:28:17;;;;;;;11.38;7.40;;;10.90;99.90;;;;;;4881290;29;20049;-85
2022/06/01 05:30:42;;;;;;;12.07;8.18;;;10.90;99.90;;;;;;4865200;29;20142;-86
2022/06/01 05:33:08;;;;;;;11.87;8.47;;;10.90;99.90;;;;;;4881183;29;20045;-86
2022/06/01 05:35:34;;;;;;;12.53;7.63;;;11.00;99.90;;;;;;4865169;29;20055;-86
2022/06/01 05:38:01;;;;;;;19.35;8.10;;;10.90;99.90;;;;;;4881458;29;20143;-85
2022/06/01 05:40:30;;;;;;;14.20;8.27;;;11.00;99.90;;;;;;4865230;29;20156;-86
2022/06/01 05:42:59;;;;;;;15.10;8.68;;;10.90;99.90;;;;;;4870554;29;20407;-85
2022/06/01 05:45:26;;;;;;;10.85;8.57;;;11.00;99.90;;;;;;4877131;29;20048;-85
2022/06/01 05:47:52;;;;;;;10.18;8.38;;;11.00;99.90;;;;;;4881063;29;20056;-84
2022/06/01 05:50:18;;;;;;;13.03;7.87;;;11.00;99.90;;;;;;4880680;29;20396;-87
2022/06/01 05:52:44;;;;;;;9.23;8.00;;;11.00;99.90;;;;;;4880349;29;20051;-84
2022/06/01 05:55:12;;;;;;;11.63;7.50;;;11.00;99.90;;;;;;4865092;29;20044;-84
2022/06/01 05:57:38;;;;;;;11.70;7.00;;;11.10;99.90;;;;;;4863512;29;20923;-84
2022/06/01 06:00:07;;;;;;;9.00;6.63;;;11.10;99.90;;;;;;4881111;29;20136;-84
2022/06/01 06:02:33;;;;;;;8.27;6.68;;;11.10;99.90;;;;;;4880122;29;20116;-84
2022/06/01 06:04:59;;;;;;;10.50;6.33;;;11.10;99.90;;;;;;4852683;29;20492;-85
2022/06/01 06:07:24;;;;;;;7.63;6.20;;;11.10;99.90;;;;;;4880087;29;20049;-84
2022/06/01 06:09:50;;;;;;;10.67;7.20;;;11.20;99.90;;;;;;4880590;29;20059;-84
2022/06/01 06:12:16;;;;;;;6.90;5.37;;;11.20;99.90;;;;;;4881107;29;20499;-84
2022/06/01 06:14:43;;;;;;;8.67;6.37;;;11.20;99.90;;;;;;4861065;29;20116;-84
2022/06/01 06:17:08;;;;;;;;;;;11.30;99.90;;;;;;4832798;29;20065;-86
2022/06/01 06:19:37;;;;;;;6.88;4.90;;;11.40;99.90;;;;;;4879775;29;19959;-85
2022/06/01 06:22:06;;;;;;;9.50;6.30;;;11.30;99.90;;;;;;4835082;29;20048;-84
2022/06/01 06:24:32;;;;;;;7.10;5.38;;;11.30;99.90;;;;;;4874752;29;20184;-85
2022/06/01 06:26:58;;;;;;;7.15;5.18;;;11.30;99.90;;;;;;4879359;29;20080;-85
2022/06/01 06:29:24;;;;;;;6.67;4.93;;;11.40;99.90;;;;;;4873292;29;20045;-87
2022/06/01 06:31:49;;;;;;;5.80;5.30;;;11.40;99.90;;;;;;4880365;29;20127;-85
2022/06/01 06:34:17;;;;;;;7.30;4.80;;;11.40;99.90;;;;;;4883136;29;20299;-85
2022/06/01 06:36:44;;;;;;;7.85;4.97;;;11.50;99.90;;;;;;4882302;29;20511;-85
2022/06/01 06:39:10;;;;;;;8.55;6.68;;;12.80;99.90;;;;;;4876913;29;20060;-85
2022/06/01 06:41:36;;;;;;;9.48;6.43;;;11.60;99.90;;;;;;4867192;29;20044;-86
2022/06/01 06:44:01;;;;;;;9.07;6.10;;;11.60;99.90;;;;;;4858417;29;20071;-85
2022/06/01 06:46:28;;;;;;;10.10;6.63;;;11.70;99.90;;;;;;4850779;29;20053;-88
2022/06/01 06:48:54;;;;;;;9.82;7.10;;;11.70;99.90;;;;;;4882953;29;20051;-86
2022/06/01 06:51:20;;;;;;;9.43;7.35;;;11.70;99.90;;;;;;4855144;29;20380;-86
2022/06/01 06:53:47;;;;;;;14.80;7.95;;;11.80;99.90;;;;;;4882004;29;20040;-86
2022/06/01 06:56:14;;;;;;;10.38;7.72;;;11.80;99.90;;;;;;4882481;29;20048;-86
2022/06/01 06:58:41;;;;;;;11.55;7.57;;;11.80;99.90;;;;;;4866679;29;20052;-86
2022/06/01 07:01:06;;;;;;;14.70;9.05;;;11.90;99.90;;;;;;4883252;29;20056;-86
2022/06/01 07:03:32;;;;;;;12.80;8.67;;;11.90;99.90;;;;;;4882176;29;20140;-88
2022/06/01 07:06:13;;;;;;;11.97;8.67;;;12.00;99.90;;;;;;4856813;29;20285;-87
2022/06/01 07:08:48;;;;;;;12.80;8.27;;;12.10;99.90;;;;;;4880161;29;20091;-89
2022/06/01 07:11:15;;;;;;;13.18;8.50;;;12.10;99.90;;;;;;4879808;29;20048;-89
2022/06/01 07:13:41;;;;;;;9.65;7.25;;;12.20;99.90;;;;;;4855679;29;20140;-88
2022/06/01 07:16:09;;;;;;;12.87;8.10;;;12.20;99.90;;;;;;4866505;29;20132;-89
2022/06/01 07:18:36;;;;;;;13.40;9.45;;;12.30;99.90;;;;;;4883253;29;20056;-88
2022/06/01 07:21:02;;;;;;;14.02;9.27;;;12.30;99.90;;;;;;4883892;29;20045;-88
2022/06/01 07:23:28;;;;;;;10.68;8.65;;;12.40;99.90;;;;;;4868014;29;20517;-89
2022/06/01 07:25:54;;;;;;;12.23;8.07;;;12.50;99.90;;;;;;4873843;29;20045;-84
2022/06/01 07:28:23;;;;;;;9.48;7.95;;;12.60;99.90;;;;;;4879380;29;20127;-88
2022/06/01 07:30:50;;;;;;;11.80;8.52;;;12.70;99.90;;;;;;4882857;29;20045;-88
2022/06/01 07:33:19;;;;;;;10.55;7.95;;;12.70;99.90;;;;;;4883383;29;20424;-88
2022/06/01 07:35:45;;;;;;;12.60;8.50;;;12.70;99.90;;;;;;4851700;29;20056;-88
2022/06/01 07:43:40;;;;;;;10.57;8.05;;;12.50;99.90;;;;;;4881096;29;20448;-83
2022/06/01 07:46:05;;;;;;;10.60;8.10;;;12.50;99.90;;;;;;4866539;29;20136;-85
2022/06/01 07:48:33;;;;;;;9.33;8.03;;;12.40;99.90;;;;;;4865665;29;20128;-85
2022/06/01 07:50:59;;;;;;;11.43;6.20;;;12.30;99.90;;;;;;4866195;29;20041;-86
2022/06/01 07:53:25;;;;;;;8.23;5.95;;;12.30;99.90;;;;;;4859115;29;20049;-84
2022/06/01 07:55:50;;;;;;;6.65;5.20;;;12.20;99.90;;;;;;4875121;29;20060;-85
2022/06/01 07:58:16;;;;;;;4.67;4.10;;;12.10;99.90;;;;;;4878691;29;20044;-84
2022/06/01 08:00:43;;;;;;;4.43;3.10;;;11.90;99.90;;;;;;4882410;29;20323;-85
2022/06/01 08:03:14;;;;;;;2.85;2.45;;;11.90;99.90;;;;;;4883051;29;20200;-84
2022/06/01 08:05:40;;;;;;;3.80;2.50;;;11.70;99.90;;;;;;4877043;29;20044;-84
2022/06/01 08:08:06;;;;;;;6.85;2.83;;;11.60;99.90;;;;;;4881906;29;20233;-84
2022/06/01 08:10:33;;;;;;;3.70;2.70;;;11.40;99.90;;;;;;4872079;29;20492;-84
2022/06/01 08:13:09;;;;;;;;;;;11.30;99.90;;;;;;4881254;29;20049;-84
2022/06/01 08:15:41;;;;;;;2.70;1.95;;;11.20;99.90;;;;;;4881447;29;20298;-83
2022/06/01 08:18:06;;;;;;;2.63;2.17;;;11.10;99.90;;;;;;4881566;29;20048;-84
2022/06/01 08:20:32;;;;;;;2.47;2.23;;;11.00;99.90;;;;;;4878021;29;20512;-85
2022/06/01 08:23:01;;;;;;;3.97;1.73;;;10.90;99.90;;;;;;4861640;29;20040;-85
2022/06/01 08:25:28;;;;;;;2.35;1.80;;;10.90;99.90;;;;;;4859927;29;20329;-86
2022/06/01 08:27:53;;;;;;;1.95;1.65;;;10.80;99.90;;;;;;4866260;29;20596;-82
2022/06/01 08:30:23;;;;;;;4.17;1.93;;;10.80;99.90;;;;;;4875522;29;20089;-84
2022/06/01 08:32:49;;;;;;;2.30;1.55;;;10.80;99.90;;;;;;4882131;29;20123;-84
2022/06/01 08:35:18;;;;;;;1.70;1.58;;;10.70;99.90;;;;;;4851778;29;20518;-84
2022/06/01 08:37:46;;;;;;;2.58;1.73;;;10.70;99.90;;;;;;4881735;29;20487;-84
2022/06/01 08:40:13;;;;;;;1.92;1.65;;;10.70;99.90;;;;;;4882529;29;20052;-85
2022/06/01 08:42:48;;;;;;;1.80;1.55;;;10.70;99.90;;;;;;4896099;29;20053;-83
2022/06/01 08:45:14;;;;;;;1.83;1.65;;;10.40;99.90;;;;;;4882531;29;20058;-83
2022/06/01 08:47:41;;;;;;;1.52;1.42;;;10.70;99.90;;;;;;4878631;29;20104;-86
2022/06/01 08:50:35;;;;;;;2.58;1.80;;;10.80;99.90;;;;;;4896334;29;20052;-84
2022/06/01 08:53:04;;;;;;;2.33;1.63;;;10.80;99.90;;;;;;4878210;29;20140;-84
2022/06/01 08:55:55;;;;;;;1.55;1.45;;;10.90;99.90;;;;;;4879759;29;20053;-86
2022/06/01 08:58:38;;;;;;;1.55;1.45;;;11.10;99.90;;;;;;4878778;29;20052;-83
2022/06/01 09:01:37;;;;;;;2.85;2.00;;;11.40;99.90;;;;;;4876770;29;20219;-84
2022/06/01 09:04:29;;;;;;;1.67;1.58;;;11.70;99.90;;;;;;4876356;29;20487;-84
2022/06/01 09:07:39;;;;;;;1.95;1.60;;;12.10;99.90;;;;;;4876773;29;20111;-85
2022/06/01 09:10:29;;;;;;;3.38;2.35;;;12.40;99.90;;;;;;4795182;29;20125;-84
2022/06/01 09:13:09;;;;;;;2.08;1.88;;;12.70;99.90;;;;;;4802748;29;20424;-85
2022/06/01 09:15:49;;;;;;;3.65;2.30;;;13.00;99.90;;;;;;4843748;29;20137;-85
2022/06/01 09:18:20;;;;;;;3.25;2.55;;;13.20;99.90;;;;;;4880613;29;20056;-85
2022/06/01 09:23:30;;;;;;;2.92;2.15;;;13.40;99.90;;;;;;4878359;29;20052;-84
2022/06/01 09:25:56;;;;;;;3.63;2.97;;;13.70;99.90;;;;;;4879301;29;20445;-86
2022/06/01 09:28:24;;;;;;;;;;;13.90;99.90;;;;;;4863110;29;20052;-85
2022/06/01 09:30:59;;;;;;;3.88;2.65;;;13.90;99.90;;;;;;4879262;29;19931;-86
2022/06/01 09:33:33;;;;;;;2.88;2.63;;;13.90;99.90;;;;;;4865443;29;20048;-85
2022/06/01 09:36:08;;;;;;;3.40;3.10;;;13.90;99.90;;;;;;4879448;29;20044;-85
2022/06/01 09:38:39;;;;;;;4.13;2.83;;;13.90;99.90;;;;;;4880366;29;20421;-85
2022/06/01 09:41:36;;;;;;;3.33;3.03;;;14.00;99.90;;;;;;4879618;29;20045;-85
2022/06/01 09:44:11;;;;;;;3.85;3.03;;;14.00;99.90;;;;;;4886530;29;20049;-85
2022/06/01 09:46:57;;;;;;;5.07;3.00;;;14.00;99.90;;;;;;4870223;29;20191;-85
2022/06/01 09:49:27;;;;;;;3.90;3.13;;;14.10;99.90;;;;;;4864108;29;20105;-83
2022/06/01 09:52:12;;;;;;;3.67;2.65;;;14.10;99.90;;;;;;4873062;29;20080;-85
2022/06/01 09:54:43;;;;;;;4.88;3.47;;;14.10;99.90;;;;;;4860074;29;20049;-84
2022/06/01 09:57:19;;;;;;;4.85;3.70;;;14.10;99.90;;;;;;4846878;29;20080;-85
2022/06/01 10:08:18;;;;;;;2.75;2.20;;;13.80;99.90;;;;;;4878989;29;20148;-86
2022/06/01 10:11:04;;;;;;;3.45;2.90;;;13.80;99.90;;;;;;4879291;29;20052;-87
2022/06/01 10:13:35;;;;;;;4.45;2.72;;;13.70;99.90;;;;;;4869992;29;20184;-87
2022/06/01 10:16:20;;;;;;;3.25;2.53;;;13.70;99.90;;;;;;4876972;29;20045;-87
2022/06/01 10:18:47;;;;;;;3.63;2.40;;;13.80;99.90;;;;;;4879637;29;20056;-85
2022/06/01 10:21:17;;;;;;;5.00;3.03;;;14.00;99.90;;;;;;4878972;29;20084;-85
2022/06/01 10:23:48;;;;;;;3.78;2.85;;;14.40;99.90;;;;;;4888361;29;20488;-85
2022/06/01 10:26:40;;;;;;;3.30;2.65;;;14.70;99.90;;;;;;4878986;29;20097;-85
2022/06/01 10:29:11;;;;;;;2.63;2.33;;;15.00;99.90;;;;;;4877963;29;20080;-85
2022/06/01 10:31:45;;;;;;;3.22;2.80;;;15.30;99.90;;;;;;4864041;29;20056;-84
2022/06/01 10:34:23;;;;;;;2.90;2.63;;;15.50;99.90;;;;;;4895556;29;20099;-83
2022/06/01 10:36:55;;;;;;;3.00;2.67;;;15.60;99.90;;;;;;4879114;29;20049;-89
2022/06/01 10:39:45;;;;;;;3.28;2.60;;;15.70;99.90;;;;;;4879146;29;20048;-87
2022/06/01 10:45:20;;;;;;;3.47;1.95;;;16.10;99.90;;;;;;4878415;29;20053;-86
2022/06/01 10:48:04;;;;;;;2.70;2.00;;;16.30;99.90;;;;;;4877315;29;20411;-86
2022/06/01 10:50:37;;;;;;;2.30;2.10;;;16.20;99.90;;;;;;4882456;29;20045;-86
2022/06/01 10:53:20;;;;;;;2.03;1.83;;;16.10;99.90;;;;;;4878864;29;20048;-86
2022/06/01 10:55:45;;;;;;;3.40;2.20;;;15.80;99.90;;;;;;4879248;29;20044;-87
2022/06/01 10:58:22;;;;;;;2.40;2.20;;;15.60;99.90;;;;;;4861527;29;20049;-87
2022/06/01 11:01:07;;;;;;;3.20;2.20;;;15.30;99.90;;;;;;4879124;29;20140;-87
2022/06/01 11:03:58;;;;;;;2.65;2.42;;;15.10;99.90;;;;;;4879355;29;20467;-88
2022/06/01 11:06:54;;;;;;;2.05;1.92;;;14.80;99.90;;;;;;4877783;29;20057;-87
2022/06/01 11:09:37;;;;;;;4.30;2.88;;;14.70;99.90;;;;;;4861477;29;20045;-85
2022/06/01 11:12:33;;;;;;;3.22;1.90;;;14.30;99.90;;;;;;4878490;29;20096;-86
2022/06/01 11:15:44;;;;;;;2.97;2.00;;;13.90;99.90;;;;;;4878802;29;20416;-85
2022/06/01 11:18:49;;;;;;;3.60;1.60;;;13.30;99.90;;;;;;4806270;29;20062;-85
2022/06/01 11:21:40;;;;;;;4.28;1.60;;;12.80;99.90;;;;;;4881906;29;20052;-85
2022/06/01 11:24:33;;;;;;;1.23;1.02;;;12.50;99.90;;;;;;4866514;29;20056;-85
2022/06/01 11:27:05;;;;;;;4.28;1.50;;;12.30;99.90;;;;;;4867953;29;20048;-86
2022/06/01 11:29:49;;;;;;;1.33;1.13;;;12.20;99.90;;;;;;4882486;29;20052;-85
2022/06/01 11:32:21;;;;;;;1.45;1.10;;;12.70;99.90;;;;;;4881936;29;20075;-85
2022/06/01 11:35:05;;;;;;;2.00;1.40;;;12.20;99.90;;;;;;4895723;29;20051;-85
2022/06/01 11:37:46;;;;;;;1.88;1.27;;;12.20;99.90;;;;;;4881516;29;20108;-86
2022/06/01 11:40:15;;;;;;;2.47;0.88;;;12.30;99.90;;;;;;4881921;29;20123;-86
2022/06/01 11:42:48;;;;;;;1.17;0.90;;;12.30;99.90;;;;;;4882132;29;20103;-85
2022/06/01 11:45:20;;;;;;;1.83;1.05;;;12.40;99.90;;;;;;4882003;29;20063;-85
2022/06/01 11:47:54;;;;;;;0.60;0.60;;;12.70;99.90;;;;;;4866366;29;20048;-85
2022/06/01 11:50:43;;;;;;;0.40;0.40;;;13.10;99.90;;;;;;4896252;29;20143;-83
2022/06/01 11:53:12;;;;;;;1.75;0.70;;;13.40;99.90;;;;;;4870971;29;20044;-83
2022/06/01 11:55:38;;;;;;;0.50;0.50;;;13.70;99.90;;;;;;4881263;29;20049;-83
2022/06/01 11:58:06;;;;;;;1.93;1.10;;;13.90;99.90;;;;;;4864889;29;20049;-83
2022/06/01 12:00:52;;;;;;;0.52;0.47;;;14.00;99.90;;;;;;4849106;29;20139;-83
2022/06/01 12:03:36;;;;;;;1.58;0.60;;;14.00;99.90;;;;;;4848994;29;20060;-83
2022/06/01 12:06:37;;;;;;;0.32;0.32;;;14.00;99.90;;;;;;4849249;29;20049;-83
2022/06/01 12:09:04;;;;;;;0.40;0.40;;;13.90;99.90;;;;;;4849284;29;20049;-83
2022/06/01 12:11:38;;;;;;;0.40;0.40;;;14.00;99.90;;;;;;4848496;29;20485;-83
2022/06/01 12:14:35;;;;;;;0.68;0.68;;;14.00;99.90;;;;;;4848888;29;20060;-84
2022/06/01 12:17:20;;;;;;;2.17;0.30;;;14.10;99.90;;;;;;4864502;29;20109;-83
2022/06/01 12:20:24;;;;;;;0.85;0.85;;;14.20;99.90;;;;;;4849129;29;20052;-83
2022/06/01 12:28:55;;;;;;;0.68;0.30;;;14.80;99.90;;;;;;4864225;29;19930;-83
2022/06/01 12:31:29;;;;;;;1.10;0.40;;;15.00;99.90;;;;;;4847843;29;20132;-84
2022/06/01 12:34:01;;;;;;;0.63;0.45;;;15.00;99.90;;;;;;4863900;29;20057;-83
2022/06/01 12:36:35;;;;;;;0.45;0.45;;;14.90;99.90;;;;;;4863290;29;20053;-83
2022/06/01 12:39:06;;;;;;;0.45;0.40;;;14.80;99.90;;;;;;4864190;29;20049;-83
2022/06/01 12:41:35;;;;;;;1.30;0.65;;;14.60;99.90;;;;;;4863559;29;20065;-83
2022/06/01 12:44:05;;;;;;;0.85;0.80;;;14.50;99.90;;;;;;4880115;29;20575;-83
2022/06/01 12:46:40;;;;;;;0.60;0.40;;;14.40;99.90;;;;;;4863452;29;20109;-83
2022/06/01 12:49:21;;;;;;;2.55;1.00;;;14.40;99.90;;;;;;4864065;29;20049;-84
2022/06/01 12:51:47;;;;;;;0.50;0.50;;;14.50;99.90;;;;;;4864082;29;20057;-83
2022/06/01 12:54:32;;;;;;;1.20;0.77;;;14.80;99.90;;;;;;4864718;29;20063;-86
2022/06/01 12:56:59;;;;;;;0.93;0.90;;;15.10;99.90;;;;;;4863819;29;20481;-83
2022/06/01 12:59:29;;;;;;;2.22;1.33;;;15.30;99.90;;;;;;4847910;29;20053;-83
2022/06/01 13:02:08;;;;;;;1.35;1.25;;;15.30;99.90;;;;;;4863771;29;20400;-84
2022/06/01 13:04:33;;;;;;;2.45;1.60;;;15.10;99.90;;;;;;4863118;29;20507;-83
2022/06/01 13:07:00;;;;;;;0.93;0.90;;;15.00;99.90;;;;;;4863532;29;20049;-83
2022/06/01 13:09:32;;;;;;;0.63;0.60;;;14.70;99.90;;;;;;4847599;29;20127;-84
2022/06/01 13:12:04;;;;;;;0.63;0.50;;;14.50;99.90;;;;;;4848057;29;20404;-83
2022/06/01 13:14:32;;;;;;;0.75;0.50;;;14.10;99.90;;;;;;4862657;29;20389;-83
2022/06/01 13:17:01;;;;;;;0.63;0.60;;;13.80;99.90;;;;;;4863386;29;20053;-83
2022/06/01 13:19:30;;;;;;;0.45;0.43;;;13.50;99.90;;;;;;4862842;29;20056;-83
2022/06/01 13:22:21;;;;;;;0.30;0.30;;;13.30;99.90;;;;;;4863609;29;20063;-83
2022/06/01 13:24:48;;;;;;;0.82;0.60;;;13.10;99.90;;;;;;4877077;29;20143;-83
2022/06/01 13:27:15;;;;;;;0.40;0.40;;;13.00;99.90;;;;;;4881844;29;20064;-84
2022/06/01 13:29:44;;;;;;;0.70;0.70;;;12.90;99.90;;;;;;4881148;29;20087;-83
2022/06/01 13:32:12;;;;;;;0.50;0.50;;;12.90;99.90;;;;;;4881649;29;20044;-83
2022/06/01 13:34:40;;;;;;;1.02;0.60;;;12.90;99.90;;;;;;4865653;29;20056;-84
2022/06/01 13:37:09;;;;;;;0.63;0.63;;;12.90;99.90;;;;;;4881576;29;20135;-84
2022/06/01 13:39:40;;;;;;;1.50;0.50;;;12.90;99.90;;;;;;4881014;29;20056;-84
2022/06/01 13:42:06;;;;;;;0.88;0.60;;;12.90;99.90;;;;;;4866645;29;20056;-83